createdAt,value
2017-11-10T00:00:15.076Z,21.62
2017-11-10T00:02:42.323Z,20.48
2017-11-10T00:05:08.692Z,18.77
2017-11-10T00:07:35.069Z,21.10
2017-11-10T00:10:01.454Z,19.37
2017-11-10T00:12:27.814Z,18.23
2017-11-10T00:14:54.175Z,19.73
2017-11-10T00:17:20.559Z,21.65
2017-11-10T00:19:46.940Z,22.37
2017-11-10T00:22:13.298Z,19.73
2017-11-10T00:24:39.654Z,19.73
2017-11-10T00:27:06.022Z,20.88
2017-11-10T00:29:32.397Z,17.73
2017-11-10T00:31:58.792Z,19.02
2017-11-10T00:34:25.187Z,16.15
2017-11-10T00:36:52.531Z,18.45
2017-11-10T00:39:18.891Z,17.70
2017-11-10T00:41:46.000Z,17.02
2017-11-10T00:44:12.409Z,18.92
2017-11-10T00:46:38.763Z,16.90
2017-11-10T00:49:05.129Z,16.77
2017-11-10T00:51:32.267Z,22.13
2017-11-10T00:53:58.623Z,20.83
2017-11-10T00:56:24.999Z,23.23
2017-11-10T00:58:51.353Z,19.42
2017-11-10T01:01:17.725Z,20.45
2017-11-10T01:03:44.090Z,20.92
2017-11-10T01:06:10.444Z,19.50
2017-11-10T01:08:36.807Z,20.60
2017-11-10T01:11:03.922Z,18.10
2017-11-10T01:13:30.303Z,21.35
2017-11-10T01:15:56.660Z,20.17
2017-11-10T01:18:23.060Z,21.67
2017-11-10T01:20:49.429Z,20.33
2017-11-10T01:23:15.928Z,16.55
2017-11-10T01:25:42.291Z,18.90
2017-11-10T01:28:08.656Z,20.75
2017-11-10T01:30:35.778Z,21.80
2017-11-10T01:33:02.161Z,18.80
2017-11-10T01:35:28.548Z,20.40
2017-11-10T01:37:54.914Z,23.12
2017-11-10T01:40:22.031Z,19.45
2017-11-10T01:42:48.435Z,21.73
2017-11-10T01:45:15.816Z,19.25
2017-11-10T01:47:42.222Z,17.20
2017-11-10T01:50:08.597Z,17.48
2017-11-10T01:52:35.752Z,21.42
2017-11-10T01:55:02.903Z,18.67
2017-11-10T01:57:30.128Z,22.58
2017-11-10T01:59:56.563Z,16.73
2017-11-10T02:02:22.970Z,18.77
2017-11-10T02:04:49.380Z,17.42
2017-11-10T02:07:15.767Z,18.80
2017-11-10T02:09:42.207Z,16.23
2017-11-10T02:12:08.623Z,19.10
2017-11-10T02:14:35.028Z,20.42
2017-11-10T02:17:01.425Z,20.35
2017-11-10T02:19:27.863Z,20.85
2017-11-10T02:21:54.332Z,22.08
2017-11-10T02:24:20.748Z,19.65
2017-11-10T02:26:47.146Z,18.80
2017-11-10T02:29:14.326Z,18.70
2017-11-10T02:31:40.734Z,18.27
2017-11-10T02:34:07.159Z,19.80
2017-11-10T02:36:34.313Z,20.58
2017-11-10T02:39:00.699Z,19.73
2017-11-10T02:41:27.220Z,21.33
2017-11-10T02:43:53.616Z,17.83
2017-11-10T02:46:20.032Z,19.70
2017-11-10T02:48:47.191Z,19.42
2017-11-10T02:51:14.340Z,20.15
2017-11-10T02:53:41.492Z,19.20
2017-11-10T02:56:08.592Z,19.77
2017-11-10T02:58:34.998Z,19.55
2017-11-10T03:01:01.420Z,20.65
2017-11-10T03:03:27.815Z,19.35
2017-11-10T03:05:54.923Z,16.00
2017-11-10T03:08:21.357Z,18.58
2017-11-10T03:10:47.760Z,17.37
2017-11-10T03:13:14.180Z,18.75
2017-11-10T03:15:40.675Z,20.02
2017-11-10T03:18:07.069Z,18.95
2017-11-10T03:20:34.448Z,19.23
2017-11-10T03:23:00.847Z,17.80
2017-11-10T03:25:27.231Z,15.73
2017-11-10T03:27:53.611Z,16.35
2017-11-10T03:30:20.021Z,15.40
2017-11-10T03:32:47.186Z,17.12
2017-11-10T03:35:13.567Z,14.50
2017-11-10T03:37:39.984Z,15.00
2017-11-10T03:40:06.352Z,13.85
2017-11-10T03:42:33.471Z,17.50
2017-11-10T03:44:59.858Z,15.35
2017-11-10T03:47:26.227Z,15.00
2017-11-10T03:49:52.623Z,15.77
2017-11-10T03:52:19.014Z,15.57
2017-11-10T03:54:46.405Z,14.80
2017-11-10T03:57:12.799Z,15.95
2017-11-10T03:59:39.174Z,14.35
2017-11-10T04:02:05.562Z,15.38
2017-11-10T04:04:31.960Z,13.40
2017-11-10T04:06:58.319Z,14.87
2017-11-10T04:09:24.702Z,16.05
2017-11-10T04:11:51.138Z,13.52
2017-11-10T04:14:18.293Z,12.07
2017-11-10T04:16:44.671Z,16.42
2017-11-10T04:19:11.807Z,13.57
2017-11-10T04:21:38.219Z,12.98
2017-11-10T04:24:04.615Z,14.65
2017-11-10T04:26:31.028Z,14.35
2017-11-10T04:28:58.155Z,13.60
2017-11-10T04:31:24.535Z,12.23
2017-11-10T04:33:50.934Z,11.80
2017-11-10T04:36:18.115Z,10.95
2017-11-10T04:38:44.500Z,12.20
2017-11-10T04:41:10.898Z,12.05
2017-11-10T04:43:38.324Z,13.30
2017-11-10T04:46:05.453Z,13.65
2017-11-10T04:48:31.825Z,13.13
2017-11-10T04:50:58.240Z,12.85
2017-11-10T04:53:24.640Z,12.43
2017-11-10T04:55:51.037Z,12.30
2017-11-10T04:58:17.479Z,13.27
2017-11-10T05:00:43.851Z,10.98
2017-11-10T05:03:10.988Z,12.95
2017-11-10T05:05:37.359Z,13.73
2017-11-10T05:08:04.824Z,14.60
2017-11-10T05:10:31.239Z,15.60
2017-11-10T05:12:57.606Z,12.60
2017-11-10T05:15:23.999Z,12.75
2017-11-10T05:17:50.407Z,16.12
2017-11-10T05:20:16.808Z,13.98
2017-11-10T05:22:43.258Z,12.73
2017-11-10T05:25:09.706Z,14.20
2017-11-10T05:27:36.874Z,15.15
2017-11-10T05:30:04.087Z,14.80
2017-11-10T05:32:30.501Z,12.88
2017-11-10T05:34:56.924Z,13.60
2017-11-10T05:37:23.339Z,13.68
2017-11-10T05:39:49.762Z,14.27
2017-11-10T05:42:16.196Z,14.32
2017-11-10T05:44:42.564Z,14.18
2017-11-10T05:47:08.983Z,14.30
2017-11-10T05:49:35.384Z,13.75
2017-11-10T05:52:01.791Z,11.32
2017-11-10T05:54:28.201Z,13.15
2017-11-10T05:56:54.614Z,14.25
2017-11-10T05:59:21.024Z,14.68
2017-11-10T06:01:47.511Z,12.98
2017-11-10T06:04:13.975Z,13.20
2017-11-10T06:06:40.376Z,12.23
2017-11-10T06:09:06.768Z,13.68
2017-11-10T06:11:33.176Z,14.68
2017-11-10T06:13:59.551Z,11.32
2017-11-10T06:16:25.959Z,11.52
2017-11-10T06:18:52.367Z,14.57
2017-11-10T06:21:19.788Z,15.48
2017-11-10T06:23:47.315Z,12.43
2017-11-10T06:26:13.710Z,14.02
2017-11-10T06:28:40.859Z,12.88
2017-11-10T06:31:07.980Z,12.00
2017-11-10T06:33:35.142Z,13.82
2017-11-10T06:36:03.932Z,14.68
2017-11-10T06:38:34.894Z,14.32
2017-11-10T06:41:01.301Z,14.82
2017-11-10T06:43:28.483Z,15.38
2017-11-10T06:45:55.897Z,13.10
2017-11-10T06:48:22.299Z,13.25
2017-11-10T06:50:48.705Z,14.15
2017-11-10T06:53:15.081Z,13.50
2017-11-10T06:55:41.446Z,13.00
2017-11-10T06:58:08.563Z,12.27
2017-11-10T07:00:34.971Z,14.27
2017-11-10T07:03:01.379Z,11.57
2017-11-10T07:05:27.775Z,16.20
2017-11-10T07:07:54.940Z,15.30
2017-11-10T07:10:22.119Z,15.20
2017-11-10T07:12:48.537Z,18.05
2017-11-10T07:15:14.935Z,17.10
2017-11-10T07:17:41.312Z,14.50
2017-11-10T07:20:08.464Z,11.88
2017-11-10T07:22:34.842Z,13.43
2017-11-10T07:25:01.203Z,13.70
2017-11-10T07:27:27.613Z,12.98
2017-11-10T07:29:54.725Z,15.98
2017-11-10T07:32:21.088Z,11.95
2017-11-10T07:34:47.470Z,13.25
2017-11-10T07:37:13.831Z,16.70
2017-11-10T07:39:40.204Z,17.10
2017-11-10T07:42:06.592Z,12.37
2017-11-10T07:44:32.965Z,13.60
2017-11-10T07:47:01.088Z,13.02
2017-11-10T07:49:27.450Z,12.98
2017-11-10T07:51:55.722Z,11.25
2017-11-10T07:54:22.080Z,16.87
2017-11-10T07:56:48.451Z,14.60
2017-11-10T07:59:14.818Z,16.12
2017-11-10T08:01:41.969Z,14.60
2017-11-10T08:04:09.081Z,13.38
2017-11-10T08:06:35.443Z,13.02
2017-11-10T08:09:02.638Z,16.55
2017-11-10T08:11:30.023Z,13.35
2017-11-10T08:13:56.451Z,16.50
2017-11-10T08:16:22.856Z,17.73
2017-11-10T08:18:49.265Z,17.98
2017-11-10T08:21:16.363Z,16.27
2017-11-10T08:23:42.746Z,17.55
2017-11-10T08:26:09.139Z,18.80
2017-11-10T08:28:35.559Z,18.05
2017-11-10T08:31:01.975Z,16.45
2017-11-10T08:33:28.368Z,19.17
2017-11-10T08:35:55.500Z,17.65
2017-11-10T08:38:22.647Z,16.90
2017-11-10T08:40:49.052Z,18.35
2017-11-10T08:43:15.439Z,17.98
2017-11-10T08:45:41.835Z,18.33
2017-11-10T08:48:08.329Z,17.90
2017-11-10T08:50:34.858Z,20.98
2017-11-10T08:53:01.304Z,17.08
2017-11-10T08:55:27.678Z,20.20
2017-11-10T08:57:54.037Z,17.23
2017-11-10T09:00:21.470Z,15.20
2017-11-10T09:02:48.572Z,19.23
2017-11-10T09:05:14.936Z,18.65
2017-11-10T09:07:41.311Z,19.73
2017-11-10T09:10:07.707Z,15.73
2017-11-10T09:12:34.855Z,16.58
2017-11-10T09:15:02.016Z,17.50
2017-11-10T09:17:29.154Z,16.27
2017-11-10T09:19:55.533Z,18.20
2017-11-10T09:22:21.935Z,16.70
2017-11-10T09:24:49.125Z,16.70
2017-11-10T09:27:21.445Z,17.37
2017-11-10T09:29:51.460Z,18.87
2017-11-10T09:32:20.603Z,19.58
2017-11-10T09:34:50.706Z,16.98
2017-11-10T09:37:20.035Z,18.40
2017-11-10T09:42:47.675Z,20.48
2017-11-10T09:45:29.969Z,17.08
2017-11-10T09:48:03.267Z,20.42
2017-11-10T09:53:41.977Z,16.17
2017-11-10T09:56:23.302Z,16.37
2017-11-10T09:58:50.551Z,19.95
2017-11-10T10:01:23.052Z,18.58
2017-11-10T10:03:50.422Z,15.55
2017-11-10T10:06:36.646Z,19.23
2017-11-10T10:09:16.727Z,18.40
2017-11-10T10:12:03.046Z,16.65
2017-11-10T10:14:29.480Z,20.95
2017-11-10T10:17:14.895Z,17.10
2017-11-10T10:19:47.456Z,16.70
2017-11-10T10:22:27.695Z,16.92
2017-11-10T10:24:54.088Z,18.70
2017-11-10T10:27:21.228Z,15.52
2017-11-10T10:29:48.343Z,14.98
2017-11-10T10:32:14.700Z,20.08
2017-11-10T10:34:41.835Z,15.05
2017-11-10T10:37:08.263Z,17.42
2017-11-10T10:39:34.699Z,16.83
2017-11-10T10:42:01.120Z,16.02
2017-11-10T10:44:27.530Z,15.07
2017-11-10T10:46:53.916Z,15.48
2017-11-10T10:49:21.120Z,16.37
2017-11-10T10:51:48.507Z,15.50
2017-11-10T10:54:14.903Z,15.70
2017-11-10T10:56:41.292Z,16.60
2017-11-10T10:59:07.711Z,15.63
2017-11-10T11:01:34.840Z,16.83
2017-11-10T11:04:01.228Z,16.55
2017-11-10T11:06:27.640Z,18.70
2017-11-10T11:08:54.807Z,15.00
2017-11-10T11:11:21.931Z,18.00
2017-11-10T11:13:49.080Z,14.65
2017-11-10T11:16:16.210Z,17.17
2017-11-10T11:18:42.631Z,16.23
2017-11-10T11:21:09.048Z,17.08
2017-11-10T11:23:35.524Z,19.75
2017-11-10T11:26:02.709Z,18.10
2017-11-10T11:28:29.811Z,17.10
2017-11-10T11:30:56.194Z,19.60
2017-11-10T11:33:22.560Z,20.08
2017-11-10T11:35:48.927Z,20.12
2017-11-10T11:38:16.025Z,19.52
2017-11-10T11:40:42.397Z,19.45
2017-11-10T11:43:09.508Z,20.15
2017-11-10T11:45:35.879Z,16.60
2017-11-10T11:48:03.021Z,19.02
2017-11-10T11:50:30.179Z,18.80
2017-11-10T11:52:57.318Z,20.12
2017-11-10T11:55:24.456Z,20.77
2017-11-10T11:57:50.842Z,17.60
2017-11-10T12:00:17.257Z,18.42
2017-11-10T12:02:43.727Z,16.58
2017-11-10T12:05:10.122Z,19.92
2017-11-10T12:07:36.523Z,14.80
2017-11-10T12:10:03.697Z,16.77
2017-11-10T12:12:30.100Z,16.75
2017-11-10T12:14:56.621Z,16.10
2017-11-10T12:17:23.021Z,19.67
2017-11-10T12:19:49.412Z,15.35
2017-11-10T12:22:16.581Z,16.92
2017-11-10T12:24:42.995Z,22.52
2017-11-10T12:27:10.151Z,15.50
2017-11-10T12:29:37.347Z,14.40
2017-11-10T12:32:03.744Z,15.63
2017-11-10T12:34:30.180Z,13.68
2017-11-10T12:36:56.574Z,13.75
2017-11-10T12:39:22.959Z,17.58
2017-11-10T12:41:49.379Z,16.98
2017-11-10T12:44:15.779Z,15.10
2017-11-10T12:46:42.952Z,16.05
2017-11-10T12:49:09.556Z,13.90
2017-11-10T12:51:35.980Z,15.82
2017-11-10T12:54:02.406Z,14.73
2017-11-10T12:56:29.808Z,13.93
2017-11-10T12:58:56.231Z,13.43
2017-11-10T13:01:22.623Z,13.55
2017-11-10T13:03:49.052Z,15.30
2017-11-10T13:06:15.487Z,15.45
2017-11-10T13:08:41.938Z,16.25
2017-11-10T13:11:08.340Z,15.77
2017-11-10T13:13:34.801Z,13.43
2017-11-10T13:16:01.990Z,13.75
2017-11-10T13:18:28.406Z,16.00
2017-11-10T13:20:55.593Z,12.95
2017-11-10T13:23:21.996Z,15.68
2017-11-10T13:25:48.367Z,14.27
2017-11-10T13:28:14.750Z,13.48
2017-11-10T13:30:41.882Z,14.63
2017-11-10T13:33:09.011Z,13.25
2017-11-10T13:35:35.378Z,13.23
2017-11-10T13:38:03.470Z,14.23
2017-11-10T13:40:29.864Z,16.62
2017-11-10T13:42:56.226Z,12.85
2017-11-10T13:45:22.605Z,15.57
2017-11-10T13:47:48.984Z,13.25
2017-11-10T13:50:15.347Z,22.13
2017-11-10T13:52:42.473Z,14.85
2017-11-10T13:55:08.864Z,14.70
2017-11-10T13:57:35.249Z,14.07
2017-11-10T14:00:01.663Z,10.27
2017-11-10T14:02:28.033Z,14.90
2017-11-10T14:04:54.452Z,17.48
2017-11-10T14:07:20.934Z,16.62
2017-11-10T14:09:48.066Z,17.02
2017-11-10T14:12:14.507Z,13.25
2017-11-10T14:14:40.916Z,12.88
2017-11-10T14:17:07.312Z,11.38
2017-11-10T14:19:33.753Z,14.30
2017-11-10T14:22:00.148Z,17.10
2017-11-10T14:24:27.309Z,13.65
2017-11-10T14:26:54.424Z,16.27
2017-11-10T14:29:20.818Z,16.50
2017-11-10T14:31:47.184Z,15.93
2017-11-10T14:34:13.559Z,14.23
2017-11-10T14:36:39.952Z,14.90
2017-11-10T14:39:06.317Z,16.95
2017-11-10T14:41:32.695Z,12.57
2017-11-10T14:43:59.078Z,15.02
2017-11-10T14:46:26.179Z,14.65
2017-11-10T14:48:52.555Z,14.87
2017-11-10T14:51:18.927Z,17.25
2017-11-10T14:53:45.312Z,15.30
2017-11-10T14:56:12.422Z,15.60
2017-11-10T14:58:38.785Z,13.48
2017-11-10T15:01:05.909Z,14.27
2017-11-10T15:03:32.332Z,14.02
2017-11-10T15:05:58.710Z,16.92
2017-11-10T15:08:25.827Z,15.98
2017-11-10T15:10:52.263Z,17.55
2017-11-10T15:13:18.689Z,15.10
2017-11-10T15:15:45.116Z,18.30
2017-11-10T15:18:11.482Z,15.60
2017-11-10T15:20:38.624Z,15.60
2017-11-10T15:23:05.754Z,13.32
2017-11-10T15:25:32.130Z,16.50
2017-11-10T15:27:58.521Z,17.02
2017-11-10T15:30:24.946Z,18.12
2017-11-10T15:32:51.348Z,15.90
2017-11-10T15:35:17.727Z,18.70
2017-11-10T15:37:44.843Z,19.70
2017-11-10T15:40:11.227Z,20.42
2017-11-10T15:42:37.644Z,19.48
2017-11-10T15:45:04.784Z,19.75
2017-11-10T15:47:31.171Z,18.95
2017-11-10T15:49:57.589Z,18.42
2017-11-10T15:52:23.967Z,18.23
2017-11-10T15:54:50.336Z,13.60
2017-11-10T15:57:16.764Z,15.63
2017-11-10T15:59:43.892Z,16.35
2017-11-10T16:02:11.040Z,14.80
2017-11-10T16:04:37.432Z,15.10
2017-11-10T16:07:03.805Z,16.12
2017-11-10T16:09:30.912Z,16.00
2017-11-10T16:11:58.340Z,14.43
2017-11-10T16:14:24.701Z,14.25
2017-11-10T16:16:51.060Z,15.20
2017-11-10T16:19:17.427Z,14.85
2017-11-10T16:21:43.816Z,16.50
2017-11-10T16:24:10.243Z,13.80
2017-11-10T16:26:36.692Z,19.00
2017-11-10T16:29:03.079Z,13.07
2017-11-10T16:31:29.439Z,11.68
2017-11-10T16:33:55.807Z,13.30
2017-11-10T16:36:22.904Z,15.60
2017-11-10T16:38:49.287Z,13.20
2017-11-10T16:41:16.693Z,10.02
2017-11-10T16:43:43.087Z,10.55
2017-11-10T16:46:09.460Z,9.52
2017-11-10T16:48:35.828Z,9.57
2017-11-10T16:51:02.948Z,10.07
2017-11-10T16:53:29.388Z,9.63
2017-11-10T16:55:55.791Z,7.95
2017-11-10T16:58:22.172Z,8.50
2017-11-10T17:00:49.300Z,8.05
2017-11-10T17:03:15.695Z,7.10
2017-11-10T17:05:42.108Z,8.80
2017-11-10T17:08:08.523Z,8.50
2017-11-10T17:10:37.928Z,8.35
2017-11-10T17:13:05.076Z,7.50
2017-11-10T17:15:32.243Z,5.82
2017-11-10T17:17:58.639Z,6.97
2017-11-10T17:20:25.057Z,6.82
2017-11-10T17:22:51.433Z,7.40
2017-11-10T17:25:17.792Z,8.05
2017-11-10T17:27:44.231Z,7.97
2017-11-10T17:30:10.618Z,7.35
2017-11-10T17:32:37.737Z,6.15
2017-11-10T17:35:04.125Z,8.40
2017-11-10T17:37:30.517Z,7.50
2017-11-10T17:39:57.656Z,6.10
2017-11-10T17:42:25.816Z,5.35
2017-11-10T17:44:52.205Z,5.75
2017-11-10T17:47:18.639Z,6.25
2017-11-10T17:49:45.063Z,6.75
2017-11-10T17:52:11.467Z,6.22
2017-11-10T17:54:38.598Z,7.03
2017-11-10T17:57:05.032Z,7.95
2017-11-10T17:59:31.471Z,10.10
2017-11-10T18:01:58.885Z,10.57
2017-11-10T18:04:25.276Z,5.18
2017-11-10T18:06:52.402Z,5.68
2017-11-10T18:09:18.759Z,3.37
2017-11-10T18:11:46.927Z,3.65
2017-11-10T18:14:14.051Z,2.95
2017-11-10T18:16:40.451Z,4.25
2017-11-10T18:19:07.831Z,3.30
2017-11-10T18:21:34.233Z,4.40
2017-11-10T18:24:00.599Z,5.75
2017-11-10T18:26:26.951Z,4.35
2017-11-10T18:28:53.336Z,4.50
2017-11-10T18:31:19.726Z,4.03
2017-11-10T18:33:46.841Z,2.87
2017-11-10T18:36:13.248Z,4.28
2017-11-10T18:38:39.638Z,3.30
2017-11-10T18:41:06.098Z,5.00
2017-11-10T18:43:32.519Z,5.68
2017-11-10T18:45:58.935Z,8.23
2017-11-10T18:48:32.079Z,8.82
2017-11-10T18:50:58.478Z,4.65
2017-11-10T18:53:24.864Z,22.08
2017-11-10T18:55:52.170Z,19.27
2017-11-10T18:58:18.551Z,3.97
2017-11-10T19:00:45.759Z,50.65
2017-11-10T19:03:12.168Z,15.32
2017-11-10T19:05:38.574Z,15.13
2017-11-10T19:08:05.704Z,5.25
2017-11-10T19:10:32.119Z,25.05
2017-11-10T19:12:58.500Z,7.87
2017-11-10T19:15:25.621Z,23.62
2017-11-10T19:17:52.012Z,41.83
2017-11-10T19:20:19.781Z,19.58
2017-11-10T19:22:46.140Z,29.00
2017-11-10T19:25:12.503Z,9.23
2017-11-10T19:27:38.909Z,14.10
2017-11-10T19:30:05.339Z,10.60
2017-11-10T19:32:31.734Z,9.23
2017-11-10T19:34:58.112Z,11.27
2017-11-10T19:37:25.266Z,12.20
2017-11-10T19:40:04.615Z,15.15
2017-11-10T19:42:31.004Z,14.52
2017-11-10T19:44:57.368Z,17.37
2017-11-10T19:47:23.775Z,11.25
2017-11-10T19:49:50.201Z,12.48
2017-11-10T19:52:16.608Z,5.37
2017-11-10T19:54:42.976Z,4.30
2017-11-10T19:57:09.601Z,19.15
2017-11-10T19:59:36.968Z,8.68
2017-11-10T20:02:03.350Z,3.55
2017-11-10T20:04:29.715Z,4.05
2017-11-10T20:06:56.079Z,3.67
2017-11-10T20:09:23.183Z,4.68
2017-11-10T20:11:49.536Z,4.72
2017-11-10T20:14:15.896Z,3.22
2017-11-10T20:16:43.012Z,4.60
2017-11-10T20:19:09.372Z,4.30
2017-11-10T20:21:36.519Z,3.80
2017-11-10T20:24:03.691Z,4.03
2017-11-10T20:26:30.071Z,4.53
2017-11-10T20:28:56.516Z,2.80
2017-11-10T20:31:22.919Z,9.82
2017-11-10T20:33:49.457Z,4.30
2017-11-10T20:36:15.852Z,5.78
2017-11-10T20:38:42.206Z,4.10
2017-11-10T20:41:08.588Z,3.35
2017-11-10T20:43:35.723Z,4.00
2017-11-10T20:46:02.105Z,3.28
2017-11-10T20:48:28.609Z,4.85
2017-11-10T20:50:56.815Z,4.00
2017-11-10T20:53:23.245Z,2.83
2017-11-10T20:55:49.604Z,2.50
2017-11-10T20:58:15.995Z,6.18
2017-11-10T21:00:42.366Z,3.15
2017-11-10T21:03:08.749Z,3.05
2017-11-10T21:05:35.139Z,4.05
2017-11-10T21:08:01.513Z,3.33
2017-11-10T21:10:27.890Z,3.62
2017-11-10T21:12:54.308Z,4.87
2017-11-10T21:15:20.736Z,5.45
2017-11-10T21:17:47.144Z,3.97
2017-11-10T21:20:13.552Z,3.80
2017-11-10T21:22:40.976Z,3.20
2017-11-10T21:25:07.367Z,3.35
2017-11-10T21:27:33.799Z,2.90
2017-11-10T21:30:00.200Z,3.15
2017-11-10T21:32:27.559Z,3.45
2017-11-10T21:34:55.687Z,2.85
2017-11-10T21:37:22.077Z,4.12
2017-11-10T21:39:49.205Z,2.92
2017-11-10T21:42:15.584Z,3.08
2017-11-10T21:44:41.989Z,2.60
2017-11-10T21:47:08.399Z,3.70
2017-11-10T21:49:34.760Z,4.22
2017-11-10T21:52:01.131Z,2.55
2017-11-10T21:54:27.556Z,3.85
2017-11-10T21:56:53.992Z,3.25
2017-11-10T21:59:20.424Z,3.25
2017-11-10T22:01:46.812Z,2.95
2017-11-10T22:04:13.958Z,10.57
2017-11-10T22:06:41.090Z,6.60
2017-11-10T22:09:08.704Z,2.72
2017-11-10T22:11:35.103Z,4.50
2017-11-10T22:14:03.080Z,5.28
2017-11-10T22:16:29.471Z,5.25
2017-11-10T22:18:55.835Z,9.90
2017-11-10T22:21:23.015Z,3.10
2017-11-10T22:23:49.396Z,2.75
2017-11-10T22:26:16.522Z,3.15
2017-11-10T22:28:42.919Z,2.28
2017-11-10T22:31:09.332Z,2.25
2017-11-10T22:33:35.733Z,2.55
2017-11-10T22:36:02.120Z,2.58
2017-11-10T22:38:28.462Z,5.03
2017-11-10T22:40:54.885Z,2.40
2017-11-10T22:43:21.252Z,2.70
2017-11-10T22:45:48.689Z,2.90
2017-11-10T22:48:15.051Z,2.10
2017-11-10T22:50:42.175Z,4.22
2017-11-10T22:53:08.536Z,2.65
2017-11-10T22:55:35.666Z,2.37
2017-11-10T22:58:02.040Z,2.40
2017-11-10T23:00:28.432Z,2.47
2017-11-10T23:02:54.821Z,3.85
2017-11-10T23:05:21.789Z,3.42
2017-11-10T23:07:48.160Z,4.43
2017-11-10T23:10:15.300Z,4.22
2017-11-10T23:12:42.407Z,8.13
2017-11-10T23:15:08.798Z,5.62
2017-11-10T23:17:36.292Z,4.68
2017-11-10T23:20:02.735Z,4.57
2017-11-10T23:22:29.135Z,4.72
2017-11-10T23:24:55.505Z,4.87
2017-11-10T23:27:21.908Z,5.65
2017-11-10T23:29:48.294Z,6.05
2017-11-10T23:32:14.652Z,6.62
2017-11-10T23:34:41.043Z,6.20
2017-11-10T23:37:08.420Z,5.18
2017-11-10T23:39:35.549Z,5.78
2017-11-10T23:42:01.932Z,8.70
2017-11-10T23:44:29.312Z,5.35
2017-11-10T23:46:55.672Z,10.15
2017-11-10T23:49:22.055Z,6.78
2017-11-10T23:51:48.430Z,5.90
2017-11-10T23:54:14.796Z,6.93
2017-11-10T23:56:41.154Z,6.72
2017-11-10T23:59:07.534Z,6.85
